createdAt,value
2022-10-04T00:00:43.929Z,9.44
2022-10-04T00:02:01.226Z,9.53
2022-10-04T00:03:22.757Z,9.64
2022-10-04T00:04:39.727Z,9.61
2022-10-04T00:05:42.810Z,9.45
2022-10-04T00:07:01.767Z,9.46
2022-10-04T00:08:26.533Z,9.49
2022-10-04T00:09:53.315Z,9.49
2022-10-04T00:11:18.001Z,9.44
2022-10-04T00:12:38.987Z,9.44
2022-10-04T00:13:47.258Z,9.46
2022-10-04T00:14:52.155Z,9.55
2022-10-04T00:15:54.953Z,9.49
2022-10-04T00:17:00.197Z,9.57
2022-10-04T00:18:11.657Z,9.59
2022-10-04T00:19:20.421Z,9.56
2022-10-04T00:20:44.569Z,9.51
2022-10-04T00:22:00.403Z,9.48
2022-10-04T00:23:38.285Z,9.43
2022-10-04T00:25:21.183Z,9.44
2022-10-04T00:26:43.965Z,9.36
2022-10-04T00:28:17.387Z,9.42
2022-10-04T00:29:26.790Z,9.49
2022-10-04T00:30:38.588Z,9.44
2022-10-04T00:32:27.725Z,9.41
2022-10-04T00:34:13.435Z,9.47
2022-10-04T00:35:27.993Z,9.54
2022-10-04T00:36:38.706Z,9.60
2022-10-04T00:38:08.806Z,9.50
2022-10-04T00:39:12.199Z,9.53
2022-10-04T00:40:20.405Z,9.50
2022-10-04T00:41:23.940Z,9.48
2022-10-04T00:42:41.704Z,9.49
2022-10-04T00:43:49.752Z,9.46
2022-10-04T00:44:59.366Z,9.42
2022-10-04T00:46:11.703Z,9.45
2022-10-04T00:47:20.553Z,9.48
2022-10-04T00:48:42.009Z,9.46
2022-10-04T00:49:47.270Z,9.45
2022-10-04T00:50:56.804Z,9.44
2022-10-04T00:52:13.119Z,9.49
2022-10-04T00:54:03.627Z,9.48
2022-10-04T00:55:10.094Z,9.47
2022-10-04T00:56:20.597Z,9.47
2022-10-04T00:57:43.371Z,9.52
2022-10-04T00:59:09.170Z,9.49
2022-10-04T01:00:15.355Z,9.45
2022-10-04T01:01:23.806Z,9.51
2022-10-04T01:02:37.580Z,9.48
2022-10-04T01:03:46.487Z,9.50
2022-10-04T01:05:03.944Z,9.49
2022-10-04T01:06:12.330Z,9.53
2022-10-04T01:07:22.448Z,9.52
2022-10-04T01:08:31.461Z,9.55
2022-10-04T01:09:42.785Z,9.59
2022-10-04T01:10:55.021Z,9.65
2022-10-04T01:12:15.132Z,9.62
2022-10-04T01:13:36.819Z,9.54
2022-10-04T01:15:01.438Z,9.53
2022-10-04T01:16:11.838Z,9.62
2022-10-04T01:17:14.471Z,9.49
2022-10-04T01:18:19.772Z,9.48
2022-10-04T01:19:22.348Z,9.52
2022-10-04T01:20:33.228Z,9.52
2022-10-04T01:21:38.509Z,9.52
2022-10-04T01:22:50.650Z,9.60
2022-10-04T01:24:15.590Z,9.56
2022-10-04T01:25:45.130Z,9.65
2022-10-04T01:26:47.775Z,9.72
2022-10-04T01:27:50.511Z,9.69
2022-10-04T01:28:54.155Z,9.63
2022-10-04T01:29:56.876Z,9.58
2022-10-04T01:31:00.176Z,9.57
2022-10-04T01:32:02.863Z,9.58
2022-10-04T01:33:07.211Z,9.66
2022-10-04T01:34:14.714Z,9.62
2022-10-04T01:35:20.731Z,9.58
2022-10-04T01:36:23.942Z,9.63
2022-10-04T01:37:27.219Z,9.60
2022-10-04T01:38:29.979Z,9.69
2022-10-04T01:39:32.545Z,9.67
2022-10-04T01:40:43.251Z,9.62
2022-10-04T01:41:58.483Z,9.61
2022-10-04T01:43:10.205Z,9.70
2022-10-04T01:44:33.394Z,9.68
2022-10-04T01:45:48.357Z,9.65
2022-10-04T01:46:55.617Z,9.67
2022-10-04T01:48:15.689Z,9.68
2022-10-04T01:49:23.484Z,9.72
2022-10-04T01:50:42.060Z,9.70
2022-10-04T01:51:54.691Z,9.68
2022-10-04T01:53:09.287Z,9.71
2022-10-04T01:54:20.160Z,9.69
2022-10-04T01:55:29.108Z,9.65
2022-10-04T01:56:44.089Z,9.70
2022-10-04T01:58:00.234Z,9.64
2022-10-04T01:59:06.924Z,9.72
2022-10-04T02:00:12.637Z,9.68
2022-10-04T02:01:25.011Z,9.79
2022-10-04T02:02:40.661Z,9.71
2022-10-04T02:04:08.521Z,9.56
2022-10-04T02:05:16.376Z,9.62
2022-10-04T02:06:21.167Z,9.51
2022-10-04T02:07:26.725Z,9.55
2022-10-04T02:08:33.926Z,9.61
2022-10-04T02:09:41.228Z,9.54
2022-10-04T02:10:49.174Z,9.47
2022-10-04T02:11:54.289Z,9.46
2022-10-04T02:12:57.910Z,9.62
2022-10-04T02:14:01.406Z,9.54
2022-10-04T02:15:08.587Z,9.51
2022-10-04T02:16:12.706Z,9.59
2022-10-04T02:17:17.482Z,9.45
2022-10-04T02:18:22.832Z,9.40
2022-10-04T02:19:33.142Z,9.42
2022-10-04T02:20:39.409Z,9.38
2022-10-04T02:21:43.889Z,9.49
2022-10-04T02:22:52.153Z,9.46
2022-10-04T02:23:55.276Z,9.39
2022-10-04T02:24:58.455Z,9.36
2022-10-04T02:26:05.770Z,9.29
2022-10-04T02:27:08.540Z,9.29
2022-10-04T02:28:15.556Z,9.32
2022-10-04T02:29:21.027Z,9.26
2022-10-04T02:30:24.528Z,9.22
2022-10-04T02:31:47.118Z,9.50
2022-10-04T02:32:57.841Z,9.40
2022-10-04T02:34:00.716Z,9.29
2022-10-04T02:35:04.268Z,9.23
2022-10-04T02:36:09.818Z,9.24
2022-10-04T02:37:14.340Z,9.38
2022-10-04T02:38:30.425Z,9.28
2022-10-04T02:39:39.107Z,9.25
2022-10-04T02:41:12.861Z,9.29
2022-10-04T02:42:25.705Z,9.13
2022-10-04T02:43:38.692Z,9.15
2022-10-04T02:44:53.032Z,9.20
2022-10-04T02:46:04.549Z,9.18
2022-10-04T02:47:20.604Z,9.14
2022-10-04T02:48:38.029Z,9.17
2022-10-04T02:49:58.741Z,9.14
2022-10-04T02:51:15.001Z,9.07
2022-10-04T02:52:40.558Z,8.99
2022-10-04T02:54:16.068Z,9.08
2022-10-04T02:55:26.814Z,8.98
2022-10-04T02:56:29.683Z,8.91
2022-10-04T02:57:35.410Z,8.92
2022-10-04T02:58:39.749Z,8.93
2022-10-04T02:59:42.446Z,8.91
2022-10-04T03:00:49.464Z,8.85
2022-10-04T03:02:05.604Z,9.03
2022-10-04T03:03:11.393Z,8.94
2022-10-04T03:04:15.266Z,8.89
2022-10-04T03:05:17.894Z,8.85
2022-10-04T03:06:22.581Z,9.00
2022-10-04T03:07:26.689Z,9.03
2022-10-04T03:08:34.541Z,9.01
2022-10-04T03:09:38.493Z,8.86
2022-10-04T03:10:43.633Z,8.74
2022-10-04T03:11:46.820Z,8.64
2022-10-04T03:12:51.723Z,8.70
2022-10-04T03:13:57.563Z,8.90
2022-10-04T03:15:00.307Z,8.74
2022-10-04T03:16:03.305Z,8.72
2022-10-04T03:17:07.661Z,8.81
2022-10-04T03:18:11.063Z,8.84
2022-10-04T03:19:16.980Z,8.74
2022-10-04T03:20:21.496Z,8.75
2022-10-04T03:21:25.545Z,8.72
2022-10-04T03:22:28.219Z,8.65
2022-10-04T03:23:33.270Z,8.65
2022-10-04T03:24:53.667Z,8.65
2022-10-04T03:26:06.171Z,8.71
2022-10-04T03:27:14.309Z,8.87
2022-10-04T03:28:17.891Z,8.92
2022-10-04T03:29:24.079Z,8.89
2022-10-04T03:30:26.905Z,8.93
2022-10-04T03:31:30.346Z,8.86
2022-10-04T03:32:33.581Z,8.84
2022-10-04T03:33:36.314Z,8.89
2022-10-04T03:34:41.878Z,8.88
2022-10-04T03:35:48.202Z,8.74
2022-10-04T03:36:56.587Z,8.78
2022-10-04T03:37:59.912Z,8.79
2022-10-04T03:39:09.540Z,8.77
2022-10-04T03:40:12.635Z,8.65
2022-10-04T03:41:16.801Z,8.62
2022-10-04T03:42:30.414Z,8.72
2022-10-04T03:43:37.749Z,8.73
2022-10-04T03:44:42.281Z,8.76
2022-10-04T03:45:45.199Z,8.71
2022-10-04T03:46:48.238Z,8.68
2022-10-04T03:47:53.390Z,8.73
2022-10-04T03:48:57.384Z,8.78
2022-10-04T03:50:07.218Z,8.79
2022-10-04T03:51:17.034Z,8.65
2022-10-04T03:52:27.331Z,8.61
2022-10-04T03:53:47.492Z,8.60
2022-10-04T03:54:52.852Z,8.60
2022-10-04T03:55:55.792Z,8.66
2022-10-04T03:56:59.623Z,8.69
2022-10-04T03:58:03.003Z,8.61
2022-10-04T03:59:07.211Z,8.63
2022-10-04T04:00:10.422Z,8.77
2022-10-04T04:01:26.181Z,8.63
2022-10-04T04:02:43.690Z,8.63
2022-10-04T04:04:07.156Z,8.63
2022-10-04T04:05:23.111Z,8.63
2022-10-04T04:06:34.926Z,8.55
2022-10-04T04:07:55.735Z,8.56
2022-10-04T04:08:59.544Z,8.52
2022-10-04T04:10:07.839Z,8.60
2022-10-04T04:11:23.349Z,8.69
2022-10-04T04:12:40.269Z,8.49
2022-10-04T04:13:42.929Z,8.59
2022-10-04T04:14:50.148Z,8.57
2022-10-04T04:15:55.905Z,8.54
2022-10-04T04:17:27.439Z,8.50
2022-10-04T04:18:35.880Z,8.61
2022-10-04T04:19:38.675Z,8.49
2022-10-04T04:20:43.584Z,8.49
2022-10-04T04:21:47.519Z,8.42
2022-10-04T04:23:01.724Z,8.51
2022-10-04T04:24:12.209Z,8.56
2022-10-04T04:25:17.393Z,8.52
2022-10-04T04:26:25.744Z,8.41
2022-10-04T04:27:33.308Z,8.42
2022-10-04T04:28:43.469Z,8.43
2022-10-04T04:29:52.488Z,8.42
2022-10-04T04:31:15.430Z,8.48
2022-10-04T04:32:41.409Z,8.52
2022-10-04T04:34:00.981Z,8.48
2022-10-04T04:35:08.633Z,8.48
2022-10-04T04:36:14.387Z,8.60
2022-10-04T04:37:17.078Z,8.64
2022-10-04T04:38:26.599Z,8.66
2022-10-04T04:39:45.439Z,8.71
2022-10-04T04:40:48.352Z,8.70
2022-10-04T04:41:51.253Z,8.66
2022-10-04T04:42:59.678Z,8.68
2022-10-04T04:44:03.530Z,8.68
2022-10-04T04:45:30.311Z,8.67
2022-10-04T04:46:33.110Z,8.73
2022-10-04T04:47:52.531Z,8.81
2022-10-04T04:49:04.482Z,8.76
2022-10-04T04:50:13.461Z,8.66
2022-10-04T04:51:23.794Z,8.67
2022-10-04T04:52:29.512Z,8.71
2022-10-04T04:53:32.626Z,8.74
2022-10-04T04:54:35.409Z,8.77
2022-10-04T04:56:02.956Z,8.82
2022-10-04T04:57:06.764Z,8.92
2022-10-04T04:58:19.479Z,8.86
2022-10-04T04:59:24.746Z,8.86
2022-10-04T05:00:36.459Z,8.84
2022-10-04T05:01:47.325Z,8.83
2022-10-04T05:03:00.005Z,8.81
2022-10-04T05:04:14.357Z,8.89
2022-10-04T05:05:28.746Z,8.79
2022-10-04T05:06:33.355Z,9.01
2022-10-04T05:07:36.333Z,8.99
2022-10-04T05:08:41.574Z,8.92
2022-10-04T05:09:44.252Z,9.01
2022-10-04T05:11:08.560Z,9.01
2022-10-04T05:12:22.676Z,9.12
2022-10-04T05:13:33.590Z,9.04
2022-10-04T05:14:44.782Z,9.02
2022-10-04T05:15:50.420Z,9.06
2022-10-04T05:16:55.529Z,9.08
2022-10-04T05:17:59.696Z,9.15
2022-10-04T05:19:06.381Z,9.11
2022-10-04T05:20:13.245Z,9.21
2022-10-04T05:21:24.495Z,9.22
2022-10-04T05:22:29.127Z,9.05
2022-10-04T05:23:33.562Z,9.05
2022-10-04T05:24:43.531Z,9.18
2022-10-04T05:25:46.688Z,9.18
2022-10-04T05:26:55.448Z,9.24
2022-10-04T05:27:58.367Z,9.22
2022-10-04T05:29:08.813Z,9.29
2022-10-04T05:30:39.756Z,9.22
2022-10-04T05:31:56.331Z,9.23
2022-10-04T05:33:06.681Z,9.34
2022-10-04T05:34:24.253Z,9.16
2022-10-04T05:35:29.995Z,9.19
2022-10-04T05:37:02.168Z,9.18
2022-10-04T05:38:49.313Z,9.20
2022-10-04T05:40:15.317Z,9.44
2022-10-04T05:41:53.445Z,9.30
2022-10-04T05:42:58.747Z,9.23
2022-10-04T05:44:02.740Z,9.26
2022-10-04T05:45:18.685Z,9.40
2022-10-04T05:46:25.841Z,9.46
2022-10-04T05:47:31.079Z,9.32
2022-10-04T05:48:36.589Z,9.46
2022-10-04T05:49:46.506Z,9.30
2022-10-04T05:50:49.205Z,9.34
2022-10-04T05:52:38.651Z,9.36
2022-10-04T05:53:42.862Z,9.42
2022-10-04T05:54:45.387Z,9.59
2022-10-04T05:56:05.759Z,9.64
2022-10-04T05:57:17.717Z,9.70
2022-10-04T05:58:34.458Z,9.69
2022-10-04T05:59:47.876Z,9.54
2022-10-04T06:01:19.029Z,9.64
2022-10-04T06:02:31.402Z,9.44
2022-10-04T06:04:03.251Z,9.51
2022-10-04T06:05:31.082Z,9.66
2022-10-04T06:06:49.932Z,9.85
2022-10-04T06:08:08.437Z,9.74
2022-10-04T06:09:22.351Z,9.85
2022-10-04T06:10:58.876Z,9.85
2022-10-04T06:12:13.652Z,9.90
2022-10-04T06:13:31.429Z,9.86
2022-10-04T06:15:08.525Z,9.71
2022-10-04T06:16:42.417Z,9.66
2022-10-04T06:17:58.288Z,9.69
2022-10-04T06:19:40.038Z,9.68
2022-10-04T06:21:21.782Z,9.67
2022-10-04T06:22:27.143Z,9.81
2022-10-04T06:23:31.873Z,9.95
2022-10-04T06:24:41.749Z,9.87
2022-10-04T06:26:14.738Z,9.89
2022-10-04T06:27:21.130Z,9.84
2022-10-04T06:28:40.889Z,9.87
2022-10-04T06:29:53.042Z,9.91
2022-10-04T06:31:14.062Z,10.05
2022-10-04T06:32:44.290Z,10.00
2022-10-04T06:33:46.818Z,9.84
2022-10-04T06:35:10.841Z,9.78
2022-10-04T06:36:22.226Z,9.79
2022-10-04T06:38:11.148Z,9.77
2022-10-04T06:39:33.995Z,9.74
2022-10-04T06:40:56.114Z,9.77
2022-10-04T06:42:04.520Z,9.87
2022-10-04T06:43:19.230Z,9.86
2022-10-04T06:44:33.917Z,9.84
2022-10-04T06:46:07.527Z,10.06
2022-10-04T06:47:38.694Z,10.24
2022-10-04T06:49:22.701Z,10.17
2022-10-04T06:50:29.339Z,10.18
2022-10-04T06:51:57.236Z,10.12
2022-10-04T06:53:15.889Z,10.23
2022-10-04T06:54:36.124Z,10.13
2022-10-04T06:55:54.314Z,10.34
2022-10-04T06:57:46.530Z,10.32
2022-10-04T06:58:53.454Z,10.46
2022-10-04T07:00:08.244Z,10.48
2022-10-04T07:01:29.019Z,10.46
2022-10-04T07:02:42.551Z,10.66
2022-10-04T07:04:00.961Z,10.83
2022-10-04T07:05:30.840Z,10.73
2022-10-04T07:07:24.107Z,10.75
2022-10-04T07:08:39.323Z,11.06
2022-10-04T07:09:43.697Z,10.93
2022-10-04T07:10:54.273Z,11.13
2022-10-04T07:12:08.659Z,11.21
2022-10-04T07:13:39.112Z,11.12
2022-10-04T07:14:49.272Z,11.15
2022-10-04T07:16:08.459Z,11.08
2022-10-04T07:17:20.096Z,11.07
2022-10-04T07:18:29.255Z,10.93
2022-10-04T07:19:37.704Z,11.02
2022-10-04T07:20:41.613Z,11.12
2022-10-04T07:21:54.133Z,11.13
2022-10-04T07:23:03.339Z,11.23
2022-10-04T07:24:12.128Z,11.21
2022-10-04T07:25:32.231Z,11.24
2022-10-04T07:26:49.025Z,11.37
2022-10-04T07:28:34.318Z,11.44
2022-10-04T07:29:42.630Z,11.36
2022-10-04T07:30:52.866Z,11.48
2022-10-04T07:32:27.690Z,11.47
2022-10-04T07:33:41.776Z,11.64
2022-10-04T07:35:05.765Z,11.75
2022-10-04T07:36:13.383Z,11.82
2022-10-04T07:37:16.811Z,12.05
2022-10-04T07:38:32.392Z,12.08
2022-10-04T07:39:44.400Z,12.11
2022-10-04T07:41:07.872Z,12.13
2022-10-04T07:42:10.460Z,12.26
2022-10-04T07:43:29.565Z,12.43
2022-10-04T07:44:37.477Z,12.51
2022-10-04T07:45:42.022Z,12.82
2022-10-04T07:47:01.168Z,13.17
2022-10-04T07:48:09.411Z,13.14
2022-10-04T07:49:21.293Z,13.16
2022-10-04T07:50:28.453Z,13.25
2022-10-04T07:51:46.209Z,13.67
2022-10-04T07:52:53.028Z,14.11
2022-10-04T07:54:22.430Z,14.31
2022-10-04T07:55:46.656Z,14.60
2022-10-04T07:57:34.012Z,14.68
2022-10-04T07:59:10.543Z,15.16
2022-10-04T08:00:36.943Z,15.35
2022-10-04T08:01:59.584Z,15.18
2022-10-04T08:03:33.175Z,15.42
2022-10-04T08:05:18.337Z,15.63
2022-10-04T08:06:36.235Z,15.99
2022-10-04T08:08:08.138Z,15.91
2022-10-04T08:09:33.659Z,15.79
2022-10-04T08:11:10.707Z,16.25
2022-10-04T08:12:19.291Z,16.72
2022-10-04T08:13:47.463Z,16.49
2022-10-04T08:15:29.339Z,16.58
2022-10-04T08:16:50.250Z,16.00
2022-10-04T08:17:58.851Z,16.00
2022-10-04T08:19:25.712Z,15.88
2022-10-04T08:20:37.394Z,15.34
2022-10-04T08:22:05.794Z,15.19
2022-10-04T08:23:28.309Z,15.15
2022-10-04T08:24:53.311Z,14.84
2022-10-04T08:26:34.147Z,14.94
2022-10-04T08:28:29.490Z,14.65
2022-10-04T08:29:58.486Z,14.65
2022-10-04T08:31:22.634Z,14.77
2022-10-04T08:32:55.768Z,14.74
2022-10-04T08:34:11.377Z,14.52
2022-10-04T08:35:36.353Z,14.78
2022-10-04T08:36:58.692Z,14.69
2022-10-04T08:38:16.971Z,14.80
2022-10-04T08:39:54.648Z,15.10
2022-10-04T08:41:27.773Z,15.30
2022-10-04T08:42:54.477Z,15.39
2022-10-04T08:44:23.406Z,15.63
2022-10-04T08:46:04.229Z,15.95
2022-10-04T08:47:29.508Z,16.08
2022-10-04T08:48:47.256Z,16.04
2022-10-04T08:50:24.946Z,16.01
2022-10-04T08:51:58.537Z,15.90
2022-10-04T08:53:25.605Z,15.76
2022-10-04T08:55:12.344Z,15.78
2022-10-04T08:56:42.735Z,15.89
2022-10-04T08:58:25.930Z,15.52
2022-10-04T09:00:06.150Z,15.76
2022-10-04T09:01:31.749Z,15.51
2022-10-04T09:03:11.892Z,15.36
2022-10-04T09:04:45.030Z,15.21
2022-10-04T09:05:47.723Z,14.71
2022-10-04T09:06:56.398Z,14.54
2022-10-04T09:08:47.245Z,14.53
2022-10-04T09:10:25.269Z,14.47
2022-10-04T09:11:40.592Z,14.38
2022-10-04T09:13:04.754Z,14.34
2022-10-04T09:14:39.580Z,14.27
2022-10-04T09:16:00.042Z,14.27
2022-10-04T09:17:48.091Z,14.26
2022-10-04T09:19:30.039Z,14.19
2022-10-04T09:20:47.531Z,14.46
2022-10-04T09:22:05.766Z,14.79
2022-10-04T09:23:33.989Z,14.98
2022-10-04T09:24:55.281Z,14.86
2022-10-04T09:26:26.753Z,14.95
2022-10-04T09:28:00.860Z,14.99
2022-10-04T09:29:32.283Z,15.64
2022-10-04T09:30:41.554Z,16.66
2022-10-04T09:32:02.443Z,16.91
2022-10-04T09:33:21.782Z,16.80
2022-10-04T09:34:45.363Z,16.67
2022-10-04T09:36:10.146Z,16.26
2022-10-04T09:37:15.380Z,16.11
2022-10-04T09:39:17.956Z,15.97
2022-10-04T09:40:29.000Z,15.84
2022-10-04T09:42:15.178Z,15.52
2022-10-04T09:43:44.949Z,15.42
2022-10-04T09:45:06.526Z,15.42
2022-10-04T09:46:29.564Z,15.73
2022-10-04T09:47:44.007Z,15.67
2022-10-04T09:49:19.638Z,15.55
2022-10-04T09:50:59.333Z,15.46
2022-10-04T09:52:16.902Z,15.29
2022-10-04T09:53:20.499Z,15.24
2022-10-04T09:54:26.346Z,15.17
2022-10-04T09:55:59.512Z,15.05
2022-10-04T09:57:13.988Z,15.30
2022-10-04T09:58:51.500Z,15.05
2022-10-04T10:00:02.686Z,14.97
2022-10-04T10:01:28.519Z,15.04
2022-10-04T10:02:57.112Z,15.11
2022-10-04T10:04:33.854Z,15.22
2022-10-04T10:06:13.918Z,15.11
2022-10-04T10:08:01.372Z,15.03
2022-10-04T10:09:50.433Z,14.95
2022-10-04T10:11:20.822Z,14.83
2022-10-04T10:13:21.756Z,14.70
2022-10-04T10:15:03.526Z,14.50
2022-10-04T10:16:42.585Z,14.55
2022-10-04T10:18:15.393Z,14.62
2022-10-04T10:19:53.467Z,14.67
2022-10-04T10:21:08.415Z,14.47
2022-10-04T10:22:32.788Z,14.32
2022-10-04T10:23:54.176Z,14.36
2022-10-04T10:25:29.187Z,14.13
2022-10-04T10:27:02.288Z,14.19
2022-10-04T10:28:32.208Z,13.97
2022-10-04T10:29:44.020Z,13.99
2022-10-04T10:31:11.309Z,14.11
2022-10-04T10:32:47.685Z,13.92
2022-10-04T10:34:21.704Z,13.76
2022-10-04T10:35:48.942Z,13.77
2022-10-04T10:37:10.222Z,14.15
2022-10-04T10:38:49.984Z,14.10
2022-10-04T10:40:17.188Z,14.13
2022-10-04T10:41:22.831Z,14.11
2022-10-04T10:42:40.331Z,14.28
2022-10-04T10:43:49.563Z,14.37
2022-10-04T10:45:21.341Z,14.72
2022-10-04T10:47:01.653Z,15.21
2022-10-04T10:48:51.439Z,16.07
2022-10-04T10:50:00.020Z,16.84
2022-10-04T10:51:23.453Z,17.64
2022-10-04T10:52:44.284Z,17.83
2022-10-04T10:54:17.290Z,18.37
2022-10-04T10:55:29.862Z,19.10
2022-10-04T10:56:46.067Z,19.62
2022-10-04T10:58:21.096Z,19.95
2022-10-04T10:59:32.397Z,19.89
2022-10-04T11:01:06.135Z,19.46
2022-10-04T11:02:47.690Z,19.92
2022-10-04T11:04:12.606Z,19.21
2022-10-04T11:05:39.485Z,19.59
2022-10-04T11:07:16.678Z,19.82
2022-10-04T11:09:02.755Z,20.28
2022-10-04T11:10:43.429Z,19.26
2022-10-04T11:12:06.388Z,19.83
2022-10-04T11:13:41.256Z,20.18
2022-10-04T11:14:55.575Z,20.12
2022-10-04T11:16:07.974Z,20.44
2022-10-04T11:17:29.680Z,19.50
2022-10-04T11:19:24.281Z,18.77
2022-10-04T11:20:32.967Z,18.19
2022-10-04T11:22:14.370Z,18.46
2022-10-04T11:23:52.110Z,18.48
2022-10-04T11:25:25.449Z,18.47
2022-10-04T11:26:57.614Z,18.32
2022-10-04T11:28:22.181Z,17.60
2022-10-04T11:29:55.519Z,17.47
2022-10-04T11:31:17.583Z,17.43
2022-10-04T11:32:32.659Z,17.94
2022-10-04T11:34:02.591Z,18.14
2022-10-04T11:35:46.749Z,17.74
2022-10-04T11:37:32.710Z,17.68
2022-10-04T11:38:51.960Z,17.20
2022-10-04T11:40:25.360Z,17.09
2022-10-04T11:41:34.372Z,17.00
2022-10-04T11:42:39.828Z,16.59
2022-10-04T11:43:48.507Z,16.45
2022-10-04T11:45:26.904Z,16.10
2022-10-04T11:46:37.424Z,16.55
2022-10-04T11:48:11.530Z,16.37
2022-10-04T11:49:20.276Z,16.18
2022-10-04T11:50:25.833Z,16.24
2022-10-04T11:52:02.328Z,16.08
2022-10-04T11:53:29.517Z,15.86
2022-10-04T11:55:00.239Z,15.83
2022-10-04T11:56:08.956Z,15.57
2022-10-04T11:57:40.535Z,15.47
2022-10-04T11:59:04.562Z,15.18
2022-10-04T12:00:21.205Z,14.96
2022-10-04T12:01:42.558Z,14.95
2022-10-04T12:03:09.620Z,14.93
2022-10-04T12:04:21.695Z,15.12
2022-10-04T12:05:48.676Z,15.18
2022-10-04T12:07:34.492Z,15.95
2022-10-04T12:08:47.316Z,16.94
2022-10-04T12:10:04.175Z,17.38
2022-10-04T12:11:25.495Z,17.47
2022-10-04T12:12:47.516Z,17.39
2022-10-04T12:14:24.731Z,17.25
2022-10-04T12:15:47.695Z,17.17
2022-10-04T12:17:09.008Z,17.04
2022-10-04T12:18:14.939Z,17.09
2022-10-04T12:19:52.494Z,16.96
2022-10-04T12:21:29.083Z,16.66
2022-10-04T12:22:43.955Z,16.60
2022-10-04T12:23:58.213Z,16.57
2022-10-04T12:25:28.509Z,16.66
2022-10-04T12:26:41.084Z,16.30
2022-10-04T12:28:02.146Z,16.16
2022-10-04T12:29:35.707Z,15.92
2022-10-04T12:30:54.125Z,15.81
2022-10-04T12:32:15.390Z,15.79
2022-10-04T12:33:24.766Z,15.69
2022-10-04T12:35:09.155Z,15.49
2022-10-04T12:36:49.736Z,15.61
2022-10-04T12:38:10.352Z,15.81
2022-10-04T12:39:33.267Z,15.82
2022-10-04T12:41:12.304Z,15.75
2022-10-04T12:42:33.503Z,16.12
2022-10-04T12:43:40.727Z,16.64
2022-10-04T12:45:08.256Z,16.96
2022-10-04T12:46:25.743Z,17.00
2022-10-04T12:47:44.927Z,17.31
2022-10-04T12:48:56.552Z,17.99
2022-10-04T12:50:17.994Z,18.51
2022-10-04T12:51:43.660Z,19.01
2022-10-04T12:53:11.122Z,19.24
2022-10-04T12:54:35.499Z,19.25
2022-10-04T12:56:22.130Z,19.76
2022-10-04T12:57:42.889Z,20.10
2022-10-04T12:59:13.045Z,20.16
2022-10-04T13:00:25.732Z,20.10
2022-10-04T13:02:09.872Z,19.92
2022-10-04T13:04:03.067Z,19.80
2022-10-04T13:05:25.971Z,19.94
2022-10-04T13:06:34.091Z,19.92
2022-10-04T13:07:44.601Z,19.40
2022-10-04T13:09:27.363Z,19.48
2022-10-04T13:10:35.762Z,19.36
2022-10-04T13:12:02.168Z,19.41
2022-10-04T13:13:39.033Z,19.66
2022-10-04T13:15:09.315Z,19.69
2022-10-04T13:18:12.763Z,19.53
2022-10-04T13:19:42.895Z,19.49
2022-10-04T13:21:06.600Z,19.63
2022-10-04T13:22:51.750Z,19.08
2022-10-04T13:24:21.494Z,19.22
2022-10-04T13:26:11.088Z,19.54
2022-10-04T13:27:22.971Z,19.53
2022-10-04T13:28:33.915Z,19.25
2022-10-04T13:29:43.814Z,19.25
2022-10-04T13:30:57.366Z,19.07
2022-10-04T13:32:12.145Z,19.28
2022-10-04T13:33:36.466Z,19.31
2022-10-04T13:34:53.455Z,18.73
2022-10-04T13:36:06.815Z,19.03
2022-10-04T13:37:45.284Z,19.41
2022-10-04T13:39:07.574Z,19.41
2022-10-04T13:40:41.041Z,19.41
2022-10-04T13:42:10.094Z,18.79
2022-10-04T13:43:33.583Z,19.34
2022-10-04T13:44:49.525Z,18.83
2022-10-04T13:46:10.850Z,18.69
2022-10-04T13:47:42.933Z,18.41
2022-10-04T13:48:52.215Z,18.76
2022-10-04T13:50:09.073Z,18.62
2022-10-04T13:51:32.542Z,18.63
2022-10-04T13:53:07.913Z,18.69
2022-10-04T13:54:58.786Z,18.61
2022-10-04T13:56:23.472Z,18.36
2022-10-04T13:57:46.745Z,18.30
2022-10-04T13:59:23.280Z,18.65
2022-10-04T14:00:54.160Z,18.55
2022-10-04T14:01:56.866Z,17.82
2022-10-04T14:03:41.195Z,17.74
2022-10-04T14:05:19.085Z,17.85
2022-10-04T14:06:27.455Z,17.99
2022-10-04T14:07:55.501Z,18.11
2022-10-04T14:09:39.824Z,18.15
2022-10-04T14:10:56.767Z,17.58
2022-10-04T14:12:17.653Z,17.17
2022-10-04T14:13:51.519Z,17.14
2022-10-04T14:15:11.675Z,17.43
2022-10-04T14:16:26.406Z,17.57
2022-10-04T14:18:13.725Z,17.82
2022-10-04T14:19:47.271Z,17.85
2022-10-04T14:21:00.009Z,17.96
2022-10-04T14:22:24.186Z,18.07
2022-10-04T14:23:44.912Z,17.74
2022-10-04T14:25:04.441Z,17.48
2022-10-04T14:27:02.781Z,17.61
2022-10-04T14:28:37.029Z,17.63
2022-10-04T14:29:58.531Z,17.64
2022-10-04T14:31:20.248Z,17.24
2022-10-04T14:32:46.142Z,17.20
2022-10-04T14:34:23.915Z,17.34
2022-10-04T14:35:54.477Z,17.18
2022-10-04T14:37:23.465Z,17.24
2022-10-04T14:38:48.359Z,17.25
2022-10-04T14:40:10.078Z,17.25
2022-10-04T14:41:50.465Z,17.06
2022-10-04T14:43:21.265Z,16.86
2022-10-04T14:44:51.223Z,16.94
2022-10-04T14:46:13.987Z,16.90
2022-10-04T14:47:43.118Z,17.07
2022-10-04T14:49:09.578Z,16.90
2022-10-04T14:50:49.614Z,16.98
2022-10-04T14:52:08.897Z,17.03
2022-10-04T14:53:42.890Z,16.82
2022-10-04T14:55:04.080Z,16.74
2022-10-04T14:56:27.677Z,16.54
2022-10-04T14:57:51.975Z,16.50
2022-10-04T14:59:22.526Z,16.52
2022-10-04T15:00:52.661Z,16.11
2022-10-04T15:02:00.841Z,16.15
2022-10-04T15:03:36.588Z,16.16
2022-10-04T15:05:12.992Z,16.25
2022-10-04T15:06:26.988Z,16.06
2022-10-04T15:07:35.421Z,16.10
2022-10-04T15:09:03.141Z,16.23
2022-10-04T15:10:28.115Z,16.01
2022-10-04T15:12:21.616Z,15.91
2022-10-04T15:13:37.108Z,15.86
2022-10-04T15:14:59.951Z,15.65
2022-10-04T15:16:21.050Z,15.74
2022-10-04T15:17:31.463Z,15.54
2022-10-04T15:18:49.249Z,15.71
2022-10-04T15:20:10.968Z,15.55
2022-10-04T15:21:46.800Z,15.36
2022-10-04T15:23:16.730Z,15.45
2022-10-04T15:24:19.294Z,15.58
2022-10-04T15:26:02.113Z,15.48
2022-10-04T15:27:33.433Z,15.44
2022-10-04T15:28:51.507Z,15.32
2022-10-04T15:30:25.012Z,15.30
2022-10-04T15:31:36.566Z,15.08
2022-10-04T15:33:10.290Z,14.89
2022-10-04T15:34:34.456Z,14.98
2022-10-04T15:35:49.166Z,14.92
2022-10-04T15:37:20.260Z,14.82
2022-10-04T15:38:45.711Z,14.87
2022-10-04T15:40:21.107Z,14.74
2022-10-04T15:41:51.021Z,14.87
2022-10-04T15:43:18.411Z,14.83
2022-10-04T15:44:33.787Z,14.77
2022-10-04T15:46:13.439Z,14.59
2022-10-04T15:47:55.872Z,14.46
2022-10-04T15:49:25.782Z,14.41
2022-10-04T15:50:32.067Z,14.41
2022-10-04T15:52:03.637Z,14.26
2022-10-04T15:53:30.995Z,14.10
2022-10-04T15:54:44.079Z,14.06
2022-10-04T15:56:27.400Z,14.05
2022-10-04T15:57:42.175Z,14.00
2022-10-04T15:59:03.266Z,13.83
2022-10-04T16:00:22.606Z,13.83
2022-10-04T16:02:03.141Z,13.96
2022-10-04T16:03:27.400Z,13.84
2022-10-04T16:04:51.937Z,13.96
2022-10-04T16:06:05.739Z,13.97
2022-10-04T16:07:08.442Z,13.65
2022-10-04T16:08:14.255Z,13.60
2022-10-04T16:09:23.739Z,13.32
2022-10-04T16:10:47.987Z,13.15
2022-10-04T16:12:20.262Z,13.26
2022-10-04T16:13:43.799Z,13.23
2022-10-04T16:14:57.077Z,13.20
2022-10-04T16:16:28.555Z,13.23
2022-10-04T16:17:57.780Z,12.98
2022-10-04T16:19:33.892Z,13.20
2022-10-04T16:20:50.903Z,13.05
2022-10-04T16:22:08.482Z,12.79
2022-10-04T16:23:31.786Z,12.64
2022-10-04T16:24:42.431Z,12.62
2022-10-04T16:25:47.529Z,12.57
2022-10-04T16:26:50.663Z,12.63
2022-10-04T16:27:56.317Z,12.34
2022-10-04T16:29:04.807Z,12.42
2022-10-04T16:30:28.326Z,12.55
2022-10-04T16:32:09.955Z,12.28
2022-10-04T16:33:25.920Z,12.39
2022-10-04T16:34:50.987Z,12.35
2022-10-04T16:36:17.018Z,12.22
2022-10-04T16:37:58.113Z,11.97
2022-10-04T16:39:19.674Z,12.03
2022-10-04T16:40:55.859Z,12.11
2022-10-04T16:42:04.363Z,12.29
2022-10-04T16:43:23.111Z,12.17
2022-10-04T16:44:40.865Z,12.18
2022-10-04T16:46:08.087Z,12.17
2022-10-04T16:47:47.701Z,12.06
2022-10-04T16:49:00.371Z,12.06
2022-10-04T16:50:05.146Z,11.99
2022-10-04T16:51:17.223Z,11.86
2022-10-04T16:52:27.541Z,11.82
2022-10-04T16:53:52.150Z,11.79
2022-10-04T16:55:46.229Z,11.82
2022-10-04T16:56:56.669Z,11.64
2022-10-04T16:58:31.019Z,11.45
2022-10-04T17:00:00.936Z,11.39
2022-10-04T17:01:24.063Z,11.47
2022-10-04T17:02:49.416Z,11.52
2022-10-04T17:03:59.025Z,11.52
2022-10-04T17:05:40.297Z,11.41
2022-10-04T17:06:56.652Z,11.48
2022-10-04T17:08:11.441Z,11.33
2022-10-04T17:09:22.523Z,11.53
2022-10-04T17:10:38.435Z,11.36
2022-10-04T17:12:02.533Z,11.43
2022-10-04T17:13:14.208Z,11.34
2022-10-04T17:14:50.881Z,11.19
2022-10-04T17:16:28.420Z,11.42
2022-10-04T17:18:06.592Z,11.48
2022-10-04T17:19:29.279Z,11.25